Terminal Aerodrome Forecast
Issued by NWS

Current Version | Previous Version | Text Only | Print | Product List | Glossary On
Versions: 1 2 3 4 5 6 7 8 9 10 11 12 13 14
000
FTAK31 PAJN 020500
TAFAJN
TAF
PAJN 020540Z 0206/0306 12011KT P6SM VCSH SCT025 BKN045 OVC050
      WS020/13030KT
     FM021200 10012KT P6SM -RA BKN025 OVC045 WS020/13030KT
     FM021800 10012G22KT P6SM -RA BKN040 OVC060 WS020/12030KT
     FM022300 11012KT P6SM -RA BKN040 OVC060
     FM030300 10006KT P6SM VCSH BKN040 OVC060=

USA.gov is the U.S. government's official web portal to all federal, state and local government web resources and services.